createdAt,value
2019-03-03T00:00:55.417Z,3.40
2019-03-03T00:03:24.738Z,3.40
2019-03-03T00:05:54.317Z,3.93
2019-03-03T00:08:24.635Z,3.50
2019-03-03T00:10:54.059Z,3.93
2019-03-03T00:13:23.355Z,3.70
2019-03-03T00:15:52.583Z,3.93
2019-03-03T00:18:21.843Z,4.37
2019-03-03T00:20:51.098Z,4.13
2019-03-03T00:23:20.332Z,4.13
2019-03-03T00:25:49.604Z,3.50
2019-03-03T00:28:18.804Z,3.60
2019-03-03T00:30:49.605Z,4.30
2019-03-03T00:33:38.072Z,4.60
2019-03-03T00:36:07.454Z,4.43
2019-03-03T00:38:58.067Z,3.83
2019-03-03T00:41:50.212Z,3.57
2019-03-03T00:44:50.864Z,3.97
2019-03-03T00:47:37.519Z,4.20
2019-03-03T00:50:20.240Z,3.20
2019-03-03T00:52:57.672Z,3.47
2019-03-03T00:55:33.697Z,3.10
2019-03-03T00:58:20.975Z,3.63
2019-03-03T01:01:00.883Z,3.30
2019-03-03T01:03:55.453Z,3.30
2019-03-03T01:06:55.755Z,3.20
2019-03-03T01:09:44.325Z,3.47
2019-03-03T01:12:35.743Z,2.67
2019-03-03T01:15:31.156Z,3.47
2019-03-03T01:18:14.907Z,2.90
2019-03-03T01:21:03.159Z,2.40
2019-03-03T01:23:42.316Z,2.93
2019-03-03T01:26:11.629Z,2.73
2019-03-03T01:28:40.901Z,2.80
2019-03-03T01:31:10.198Z,2.67
2019-03-03T01:33:39.440Z,2.30
2019-03-03T01:36:08.642Z,2.80
2019-03-03T01:38:37.884Z,2.90
2019-03-03T01:41:07.205Z,2.57
2019-03-03T01:43:36.399Z,2.40
2019-03-03T01:46:07.283Z,2.97
2019-03-03T01:48:36.555Z,2.60
2019-03-03T01:51:06.026Z,2.90
2019-03-03T01:53:35.217Z,2.53
2019-03-03T01:56:04.940Z,2.73
2019-03-03T01:58:34.208Z,2.23
2019-03-03T02:01:03.392Z,2.43
2019-03-03T02:03:33.014Z,3.20
2019-03-03T02:06:02.601Z,2.60
2019-03-03T02:08:31.820Z,3.00
2019-03-03T02:11:01.067Z,2.13
2019-03-03T02:13:30.337Z,2.50
2019-03-03T02:15:59.605Z,2.60
2019-03-03T02:18:28.878Z,2.83
2019-03-03T02:20:58.158Z,3.67
2019-03-03T02:23:27.454Z,2.80
2019-03-03T02:25:56.701Z,2.53
2019-03-03T02:28:26.023Z,3.00
2019-03-03T02:30:55.400Z,2.80
2019-03-03T02:33:24.644Z,3.33
2019-03-03T02:35:53.921Z,2.93
2019-03-03T02:38:23.146Z,3.00
2019-03-03T02:40:52.425Z,2.53
2019-03-03T02:43:21.707Z,2.93
2019-03-03T02:45:51.039Z,3.00
2019-03-03T02:48:20.259Z,3.00
2019-03-03T02:50:49.574Z,2.90
2019-03-03T02:53:18.985Z,3.13
2019-03-03T02:55:48.184Z,3.10
2019-03-03T02:58:17.406Z,3.50
2019-03-03T03:00:54.238Z,3.33
2019-03-03T03:03:23.855Z,3.23
2019-03-03T03:06:02.981Z,3.00
2019-03-03T03:08:36.847Z,4.03
2019-03-03T03:11:31.218Z,3.77
2019-03-03T03:14:16.227Z,3.93
2019-03-03T03:16:51.867Z,3.57
2019-03-03T03:19:40.135Z,3.73
2019-03-03T03:22:40.697Z,3.63
2019-03-03T03:25:32.146Z,3.47
2019-03-03T03:28:20.368Z,4.10
2019-03-03T03:31:14.421Z,3.50
2019-03-03T03:33:49.967Z,3.93
2019-03-03T03:36:44.279Z,3.33
2019-03-03T03:39:31.457Z,3.23
2019-03-03T03:42:10.487Z,4.17
2019-03-03T03:44:55.504Z,3.77
2019-03-03T03:47:29.991Z,4.17
2019-03-03T03:50:14.852Z,4.77
2019-03-03T03:53:01.653Z,4.13
2019-03-03T03:55:53.208Z,4.37
2019-03-03T03:58:44.540Z,3.83
2019-03-03T04:01:28.515Z,4.47
2019-03-03T04:04:05.325Z,4.60
2019-03-03T04:06:41.973Z,4.83
2019-03-03T04:09:21.849Z,4.77
2019-03-03T04:12:15.687Z,4.40
2019-03-03T04:14:50.966Z,4.47
2019-03-03T04:17:54.630Z,4.47
2019-03-03T04:20:37.183Z,6.33
2019-03-03T04:23:24.072Z,5.40
2019-03-03T04:26:01.992Z,5.70
2019-03-03T04:28:50.219Z,5.27
2019-03-03T04:31:29.472Z,5.30
2019-03-03T04:34:17.538Z,5.37
2019-03-03T04:36:55.096Z,5.13
2019-03-03T04:39:40.177Z,5.17
2019-03-03T04:42:21.476Z,4.93
2019-03-03T04:45:09.698Z,4.30
2019-03-03T04:47:57.026Z,5.20
2019-03-03T04:50:49.624Z,5.57
2019-03-03T04:53:53.244Z,5.13
2019-03-03T04:56:31.008Z,5.63
2019-03-03T04:59:19.478Z,5.70
2019-03-03T05:01:57.814Z,5.73
2019-03-03T05:04:35.649Z,6.77
2019-03-03T05:07:12.096Z,5.80
2019-03-03T05:09:53.913Z,5.87
2019-03-03T05:12:52.936Z,6.97
2019-03-03T05:15:40.128Z,6.97
2019-03-03T05:18:31.371Z,6.40
2019-03-03T05:21:00.686Z,6.03
2019-03-03T05:23:29.878Z,6.13
2019-03-03T05:25:59.079Z,6.97
2019-03-03T05:28:28.296Z,7.10
2019-03-03T05:30:57.495Z,6.67
2019-03-03T05:33:26.677Z,6.80
2019-03-03T05:35:55.982Z,7.87
2019-03-03T05:38:25.177Z,8.20
2019-03-03T05:40:54.363Z,7.77
2019-03-03T05:43:23.684Z,7.80
2019-03-03T05:45:52.961Z,7.73
2019-03-03T05:48:22.160Z,7.23
2019-03-03T05:50:51.525Z,7.30
2019-03-03T05:53:22.609Z,8.93
2019-03-03T05:55:51.919Z,8.13
2019-03-03T05:58:21.427Z,7.67
2019-03-03T06:00:50.680Z,7.67
2019-03-03T06:03:19.872Z,7.90
2019-03-03T06:05:49.110Z,7.67
2019-03-03T06:08:18.332Z,8.00
2019-03-03T06:10:47.508Z,8.10
2019-03-03T06:13:16.890Z,8.27
2019-03-03T06:15:46.178Z,8.73
2019-03-03T06:18:18.434Z,9.30
2019-03-03T06:20:47.832Z,9.60
2019-03-03T06:23:17.024Z,8.73
2019-03-03T06:25:46.209Z,8.13
2019-03-03T06:28:15.493Z,9.80
2019-03-03T06:30:44.888Z,9.37
2019-03-03T06:33:14.143Z,9.07
2019-03-03T06:35:43.415Z,8.97
2019-03-03T06:38:12.702Z,9.37
2019-03-03T06:40:41.923Z,8.90
2019-03-03T06:43:11.102Z,8.80
2019-03-03T06:45:40.352Z,9.77
2019-03-03T06:48:09.581Z,10.03
2019-03-03T06:50:38.976Z,8.90
2019-03-03T06:53:08.194Z,9.07
2019-03-03T06:55:37.479Z,8.93
2019-03-03T06:58:06.921Z,8.80
2019-03-03T07:00:36.142Z,9.13
2019-03-03T07:03:05.366Z,9.17
2019-03-03T07:05:34.551Z,9.83
2019-03-03T07:08:03.865Z,9.50
2019-03-03T07:10:33.142Z,10.00
2019-03-03T07:13:02.575Z,9.57
2019-03-03T07:15:31.931Z,10.43
2019-03-03T07:18:01.354Z,10.03
2019-03-03T07:20:30.672Z,10.27
2019-03-03T07:23:00.117Z,10.13
2019-03-03T07:25:29.390Z,9.80
2019-03-03T07:27:58.677Z,10.33
2019-03-03T07:30:28.033Z,10.07
2019-03-03T07:33:32.475Z,10.07
2019-03-03T07:36:01.823Z,10.17
2019-03-03T07:38:31.042Z,11.07
2019-03-03T07:41:00.355Z,9.83
2019-03-03T07:43:29.553Z,9.37
2019-03-03T07:45:58.785Z,9.73
2019-03-03T07:48:28.100Z,11.07
2019-03-03T07:50:57.299Z,9.33
2019-03-03T07:53:26.560Z,9.60
2019-03-03T07:55:55.792Z,10.50
2019-03-03T07:58:25.413Z,9.93
2019-03-03T08:00:54.606Z,9.87
2019-03-03T08:03:23.920Z,9.53
2019-03-03T08:05:53.114Z,9.17
2019-03-03T08:08:22.322Z,10.00
2019-03-03T08:10:51.643Z,9.07
2019-03-03T08:13:20.920Z,8.87
2019-03-03T08:15:50.139Z,9.77
2019-03-03T08:18:19.401Z,9.97
2019-03-03T08:20:48.826Z,10.30
2019-03-03T08:23:18.113Z,10.20
2019-03-03T08:25:47.379Z,10.50
2019-03-03T08:28:16.578Z,9.40
2019-03-03T08:30:49.006Z,9.87
2019-03-03T08:33:18.267Z,9.80
2019-03-03T08:35:47.476Z,11.57
2019-03-03T08:38:17.374Z,10.57
2019-03-03T08:40:49.542Z,9.40
2019-03-03T08:43:31.061Z,9.50
2019-03-03T08:46:19.670Z,8.43
2019-03-03T08:48:55.953Z,11.43
2019-03-03T08:51:42.809Z,9.20
2019-03-03T08:54:43.008Z,8.97
2019-03-03T08:57:46.367Z,9.53
2019-03-03T09:00:46.540Z,9.27
2019-03-03T09:03:50.140Z,9.60
2019-03-03T09:06:50.493Z,8.30
2019-03-03T09:09:38.832Z,10.07
2019-03-03T09:12:28.796Z,8.13
2019-03-03T09:15:11.163Z,7.60
2019-03-03T09:17:58.327Z,7.43
2019-03-03T09:20:45.983Z,7.10
2019-03-03T09:23:46.693Z,7.67
2019-03-03T09:26:33.770Z,7.13
2019-03-03T09:29:19.249Z,6.67
2019-03-03T09:32:06.566Z,7.17
2019-03-03T09:34:57.655Z,7.43
2019-03-03T09:37:32.930Z,7.03
2019-03-03T09:40:13.913Z,6.37
2019-03-03T09:42:50.576Z,5.90
2019-03-03T09:45:35.108Z,6.47
2019-03-03T09:48:29.467Z,6.13
2019-03-03T09:51:24.989Z,6.23
2019-03-03T09:54:27.908Z,6.33
2019-03-03T09:57:22.035Z,5.50
2019-03-03T10:00:11.657Z,5.60
2019-03-03T10:02:50.292Z,6.23
2019-03-03T10:05:38.765Z,6.17
2019-03-03T10:08:28.222Z,5.83
2019-03-03T10:11:21.976Z,5.60
2019-03-03T10:13:58.632Z,6.17
2019-03-03T10:16:39.532Z,5.67
2019-03-03T10:19:15.686Z,5.50
2019-03-03T10:22:03.945Z,5.33
2019-03-03T10:24:50.826Z,4.87
2019-03-03T10:27:30.700Z,5.20
2019-03-03T10:30:47.070Z,4.57
2019-03-03T10:33:47.419Z,5.17
2019-03-03T10:36:30.632Z,4.80
2019-03-03T10:39:20.648Z,4.80
2019-03-03T10:42:11.923Z,4.80
2019-03-03T10:45:06.390Z,4.97
2019-03-03T10:47:52.206Z,5.17
2019-03-03T10:50:49.719Z,5.17
2019-03-03T10:53:37.980Z,4.20
2019-03-03T10:56:17.075Z,4.23
2019-03-03T10:59:04.872Z,4.53
2019-03-03T11:01:52.268Z,4.47
2019-03-03T11:04:32.231Z,4.87
2019-03-03T11:07:26.386Z,5.37
2019-03-03T11:10:23.554Z,4.67
2019-03-03T11:13:11.851Z,4.77
2019-03-03T11:15:59.047Z,4.40
2019-03-03T11:18:59.725Z,5.03
2019-03-03T11:21:57.338Z,4.20
2019-03-03T11:24:51.635Z,5.33
2019-03-03T11:27:26.590Z,4.63
2019-03-03T11:30:27.213Z,4.53
2019-03-03T11:33:21.341Z,4.83
2019-03-03T11:36:03.895Z,4.30
2019-03-03T11:38:45.380Z,5.27
2019-03-03T11:41:37.197Z,4.70
2019-03-03T11:44:17.731Z,4.30
2019-03-03T11:46:58.052Z,4.57
2019-03-03T11:49:42.992Z,4.67
2019-03-03T11:52:40.515Z,4.53
2019-03-03T11:55:24.936Z,4.70
2019-03-03T11:58:24.615Z,4.30
2019-03-03T12:01:06.106Z,4.13
2019-03-03T12:03:48.246Z,4.57
2019-03-03T12:06:35.952Z,5.13
2019-03-03T12:09:29.562Z,4.97
2019-03-03T12:12:33.026Z,5.17
2019-03-03T12:15:10.451Z,5.37
2019-03-03T12:17:51.262Z,5.57
2019-03-03T12:20:54.813Z,5.77
2019-03-03T12:23:42.347Z,4.83
2019-03-03T12:26:30.629Z,5.80
2019-03-03T12:29:28.091Z,5.63
2019-03-03T12:32:19.211Z,6.00
2019-03-03T12:35:13.243Z,5.87
2019-03-03T12:38:13.621Z,6.47
2019-03-03T12:41:16.921Z,5.73
2019-03-03T12:44:23.413Z,6.53
2019-03-03T12:47:06.226Z,6.47
2019-03-03T12:49:44.967Z,6.37
2019-03-03T12:52:42.513Z,6.83
2019-03-03T12:55:30.775Z,6.60
2019-03-03T12:58:22.087Z,6.57
2019-03-03T13:01:13.476Z,6.53
2019-03-03T13:04:04.869Z,6.90
2019-03-03T13:06:50.758Z,8.47
2019-03-03T13:09:33.004Z,7.27
2019-03-03T13:12:14.816Z,7.67
2019-03-03T13:14:54.743Z,7.90
2019-03-03T13:17:58.284Z,6.93
2019-03-03T13:20:49.491Z,7.77
2019-03-03T13:23:36.568Z,7.53
2019-03-03T13:26:34.356Z,7.63
2019-03-03T13:29:35.321Z,8.17
2019-03-03T13:32:23.525Z,7.13
2019-03-03T13:35:11.864Z,7.80
2019-03-03T13:38:06.223Z,8.27
2019-03-03T13:40:54.523Z,6.87
2019-03-03T13:43:23.814Z,7.17
2019-03-03T13:45:53.296Z,7.27
2019-03-03T13:48:22.747Z,7.03
2019-03-03T13:50:51.939Z,7.50
2019-03-03T13:53:21.229Z,7.80
2019-03-03T13:55:50.748Z,8.33
2019-03-03T13:58:20.056Z,7.20
2019-03-03T14:00:49.415Z,8.03
2019-03-03T14:03:18.707Z,8.57
2019-03-03T14:05:48.109Z,7.87
2019-03-03T14:08:17.331Z,7.40
2019-03-03T14:10:46.582Z,8.03
2019-03-03T14:13:15.843Z,7.67
2019-03-03T14:15:46.726Z,8.20
2019-03-03T14:18:16.113Z,8.43
2019-03-03T14:20:45.368Z,8.47
2019-03-03T14:23:14.607Z,8.20
2019-03-03T14:25:43.921Z,8.37
2019-03-03T14:28:13.216Z,7.97
2019-03-03T14:30:42.466Z,7.70
2019-03-03T14:33:11.843Z,8.03
2019-03-03T14:35:41.116Z,7.80
2019-03-03T14:38:10.319Z,8.43
2019-03-03T14:40:39.544Z,8.70
2019-03-03T14:43:09.226Z,8.40
2019-03-03T14:45:38.602Z,7.77
2019-03-03T14:48:08.151Z,7.93
2019-03-03T14:50:37.795Z,7.40
2019-03-03T14:53:07.010Z,8.00
2019-03-03T14:55:36.500Z,8.00
2019-03-03T14:58:05.718Z,7.37
2019-03-03T15:00:35.051Z,8.50
2019-03-03T15:03:06.366Z,7.90
2019-03-03T15:05:36.880Z,7.40
2019-03-03T15:08:06.355Z,8.30
2019-03-03T15:10:35.677Z,7.42
2019-03-03T15:13:04.968Z,7.07
2019-03-03T15:15:34.830Z,7.57
2019-03-03T15:18:04.338Z,7.93
2019-03-03T15:20:33.996Z,7.07
2019-03-03T15:23:03.374Z,7.57
2019-03-03T15:25:32.613Z,8.33
2019-03-03T15:28:01.875Z,7.37
2019-03-03T15:30:31.117Z,8.23
2019-03-03T15:33:00.357Z,8.40
2019-03-03T15:35:30.794Z,7.13
2019-03-03T15:38:00.059Z,7.03
2019-03-03T15:40:29.802Z,7.17
2019-03-03T15:42:59.000Z,7.10
2019-03-03T15:45:28.203Z,7.30
2019-03-03T15:47:57.529Z,7.10
2019-03-03T15:50:26.735Z,7.63
2019-03-03T15:52:56.075Z,6.53
2019-03-03T15:55:25.393Z,7.57
2019-03-03T15:57:54.753Z,6.83
2019-03-03T16:00:26.127Z,7.20
2019-03-03T16:02:55.836Z,6.53
2019-03-03T16:05:25.280Z,5.93
2019-03-03T16:07:55.933Z,6.83
2019-03-03T16:10:25.349Z,6.43
2019-03-03T16:12:55.494Z,6.03
2019-03-03T16:15:24.866Z,5.80
2019-03-03T16:17:54.100Z,5.50
2019-03-03T16:20:23.924Z,6.73
2019-03-03T16:22:53.259Z,6.00
2019-03-03T16:25:24.502Z,5.43
2019-03-03T16:27:53.704Z,5.03
2019-03-03T16:30:23.031Z,5.80
2019-03-03T16:32:52.353Z,5.03
2019-03-03T16:35:21.570Z,5.80
2019-03-03T16:37:51.078Z,5.27
2019-03-03T16:40:21.454Z,5.60
2019-03-03T16:42:50.884Z,4.70
2019-03-03T16:45:20.870Z,4.93
2019-03-03T16:47:50.135Z,5.30
2019-03-03T16:50:19.348Z,5.80
2019-03-03T16:52:48.980Z,5.23
2019-03-03T16:55:19.376Z,5.23
2019-03-03T16:57:48.595Z,5.33
2019-03-03T17:00:24.039Z,5.67
2019-03-03T17:02:55.235Z,4.83
2019-03-03T17:05:24.693Z,5.10
2019-03-03T17:07:53.913Z,4.57
2019-03-03T17:10:23.204Z,5.43
2019-03-03T17:12:52.605Z,4.83
2019-03-03T17:15:22.455Z,4.60
2019-03-03T17:17:51.945Z,4.83
2019-03-03T17:20:21.808Z,4.70
2019-03-03T17:22:51.115Z,5.10
2019-03-03T17:25:21.711Z,5.00
2019-03-03T17:27:53.589Z,4.60
2019-03-03T17:30:23.205Z,4.70
2019-03-03T17:32:52.630Z,5.67
2019-03-03T17:35:21.883Z,4.53
2019-03-03T17:37:51.079Z,4.87
2019-03-03T17:40:21.130Z,4.80
2019-03-03T17:42:52.226Z,5.07
2019-03-03T17:45:21.647Z,4.83
2019-03-03T17:47:50.944Z,4.90
2019-03-03T17:50:21.198Z,5.57
2019-03-03T17:52:50.406Z,5.00
2019-03-03T17:55:19.741Z,4.23
2019-03-03T17:57:49.044Z,4.80
2019-03-03T18:00:20.928Z,4.60
2019-03-03T18:02:50.217Z,4.77
2019-03-03T18:05:20.798Z,5.33
2019-03-03T18:07:50.597Z,4.43
2019-03-03T18:10:20.086Z,4.13
2019-03-03T18:12:49.650Z,5.30
2019-03-03T18:15:19.139Z,4.30
2019-03-03T18:17:50.382Z,4.77
2019-03-03T18:20:19.729Z,3.67
2019-03-03T18:22:49.299Z,3.70
2019-03-03T18:25:18.929Z,4.10
2019-03-03T18:27:48.452Z,4.73
2019-03-03T18:30:20.051Z,4.60
2019-03-03T18:32:49.554Z,4.70
2019-03-03T18:35:18.875Z,3.80
2019-03-03T18:37:48.229Z,4.50
2019-03-03T18:40:19.095Z,4.00
2019-03-03T18:42:48.853Z,4.33
2019-03-03T18:45:18.613Z,4.83
2019-03-03T18:47:48.051Z,3.50
2019-03-03T18:50:18.170Z,4.07
2019-03-03T18:52:47.670Z,4.13
2019-03-03T18:55:17.234Z,4.03
2019-03-03T18:57:46.743Z,4.80
2019-03-03T19:00:18.644Z,4.73
2019-03-03T19:02:47.947Z,4.97
2019-03-03T19:05:17.848Z,4.87
2019-03-03T19:07:47.508Z,4.80
2019-03-03T19:10:18.820Z,4.30
2019-03-03T19:12:48.208Z,4.53
2019-03-03T19:15:18.266Z,4.60
2019-03-03T19:17:47.710Z,3.90
2019-03-03T19:20:18.000Z,4.70
2019-03-03T19:22:47.857Z,4.70
2019-03-03T19:25:18.726Z,4.00
2019-03-03T19:27:49.157Z,4.33
2019-03-03T19:30:22.955Z,4.90
2019-03-03T19:32:58.806Z,4.83
2019-03-03T19:35:28.136Z,4.00
2019-03-03T19:38:03.844Z,4.77
2019-03-03T19:40:30.571Z,4.40
2019-03-03T19:42:59.736Z,4.70
2019-03-03T19:45:31.086Z,4.67
2019-03-03T19:48:00.301Z,4.80
2019-03-03T19:50:29.667Z,4.30
2019-03-03T19:52:58.851Z,4.60
2019-03-03T19:55:28.119Z,4.03
2019-03-03T19:57:57.430Z,4.90
2019-03-03T20:00:35.922Z,3.87
2019-03-03T20:03:01.917Z,4.03
2019-03-03T20:05:31.719Z,4.13
2019-03-03T20:08:01.089Z,4.40
2019-03-03T20:10:30.402Z,4.30
2019-03-03T20:13:01.813Z,4.93
2019-03-03T20:15:49.952Z,4.53
2019-03-03T20:18:19.387Z,4.67
2019-03-03T20:20:48.868Z,3.57
2019-03-03T20:23:18.179Z,4.27
2019-03-03T20:25:47.563Z,4.77
2019-03-03T20:28:16.860Z,4.70
2019-03-03T20:30:46.569Z,4.50
2019-03-03T20:33:16.946Z,5.65
2019-03-03T20:35:46.238Z,5.20
2019-03-03T20:38:15.619Z,5.00
2019-03-03T20:40:44.802Z,4.70
2019-03-03T20:43:14.073Z,4.60
2019-03-03T20:45:43.640Z,4.50
2019-03-03T20:48:13.018Z,4.20
2019-03-03T20:50:42.322Z,4.97
2019-03-03T20:53:11.667Z,4.77
2019-03-03T20:55:40.958Z,5.10
2019-03-03T20:58:10.194Z,4.20
2019-03-03T21:00:39.620Z,4.47
2019-03-03T21:03:10.176Z,4.50
2019-03-03T21:05:39.368Z,4.40
2019-03-03T21:08:08.673Z,4.47
2019-03-03T21:10:37.882Z,5.00
2019-03-03T21:13:07.159Z,4.37
2019-03-03T21:15:37.887Z,4.10
2019-03-03T21:18:07.305Z,5.10
2019-03-03T21:20:36.636Z,4.33
2019-03-03T21:23:05.969Z,4.47
2019-03-03T21:25:37.053Z,4.40
2019-03-03T21:28:06.518Z,4.43
2019-03-03T21:30:35.933Z,4.30
2019-03-03T21:33:05.205Z,4.00
2019-03-03T21:35:34.422Z,4.07
2019-03-03T21:38:03.765Z,4.63
2019-03-03T21:40:33.051Z,4.03
2019-03-03T21:43:03.717Z,4.30
2019-03-03T21:45:34.196Z,4.30
2019-03-03T21:48:03.474Z,3.70
2019-03-03T21:50:32.686Z,4.70
2019-03-03T21:53:02.080Z,4.07
2019-03-03T21:55:31.330Z,4.07
2019-03-03T21:58:00.730Z,4.90
2019-03-03T22:00:31.897Z,4.90
2019-03-03T22:03:01.172Z,4.33
2019-03-03T22:05:33.744Z,4.50
2019-03-03T22:08:03.964Z,4.27
2019-03-03T22:10:33.712Z,4.67
2019-03-03T22:13:07.844Z,4.20
2019-03-03T22:15:37.278Z,4.20
2019-03-03T22:18:06.620Z,4.50
2019-03-03T22:20:35.929Z,4.43
2019-03-03T22:23:05.578Z,4.33
2019-03-03T22:25:34.762Z,4.07
2019-03-03T22:28:04.043Z,3.70
2019-03-03T22:30:33.305Z,4.13
2019-03-03T22:33:02.562Z,4.00
2019-03-03T22:35:33.993Z,4.13
2019-03-03T22:38:03.231Z,4.20
2019-03-03T22:40:32.483Z,4.53
2019-03-03T22:43:01.686Z,4.23
2019-03-03T22:45:30.979Z,4.00
2019-03-03T22:48:00.161Z,3.97
2019-03-03T22:50:29.366Z,4.07
2019-03-03T22:52:58.583Z,3.63
2019-03-03T22:55:29.327Z,3.53
2019-03-03T22:57:58.505Z,3.53
2019-03-03T23:00:50.282Z,3.30
2019-03-03T23:03:29.839Z,3.23
2019-03-03T23:06:21.982Z,3.20
2019-03-03T23:09:19.663Z,3.20
2019-03-03T23:12:01.595Z,3.40
2019-03-03T23:14:53.244Z,3.30
2019-03-03T23:17:50.762Z,3.80
2019-03-03T23:20:41.246Z,3.67
2019-03-03T23:24:15.738Z,3.00
2019-03-03T23:26:45.024Z,3.67
2019-03-03T23:29:14.197Z,3.40
2019-03-03T23:31:43.504Z,3.43
2019-03-03T23:34:12.702Z,3.47
2019-03-03T23:36:41.998Z,2.90
2019-03-03T23:39:11.602Z,2.73
2019-03-03T23:41:40.880Z,2.83
2019-03-03T23:44:10.161Z,2.60
2019-03-03T23:46:39.376Z,3.17
2019-03-03T23:49:08.696Z,2.70
2019-03-03T23:51:38.453Z,2.27
2019-03-03T23:54:07.723Z,2.83
2019-03-03T23:56:36.906Z,2.43
2019-03-03T23:59:06.121Z,2.67
